Dodson, TX (79230)

2:32 PM CST on March 05, 2015 (GMT -0600)
Bobcat Wireless | Change Station
CLOSE
Current Station
Personal Weather Station
Location: Childress, TX
Elevation: 1896 ft
Nearby Weather Stations

Elev 1896 ft 34.43 °N, 100.21 °W | Updated 27 minutes ago

Clear
Clear
41.1 °F
Feels Like 41 °F
N
1.0
Wind Variable Wind from North
Gusts 12.0 mph

Today
High -- | Low -- °F
--% Chance of Precip.
Yesterday
High -- | Low -- °F
Precip. -- in
7:04 AM 6:39 PM
Full, 100% visible
Pressure 30.56 in
Visibility 10.0 miles
Clouds Clear
Windchill 41 °F
Dew Point 19 °F
Humidity 41%
Rainfall in
Snow Depth Not available.
UV 7 out of 12
Pollen 4.80 out of 12
Air Quality Not available.
Flu Activity Not available.
METAR KCDS 051953Z AUTO 24009KT 10SM CLR 04/M08 A3052 RMK AO2 SLP347 T00391078

More Conditions Fewer Conditions

Pressure 30.56 in
Visibility 10.0 miles
Clouds Clear
Windchill 41 °F
Dew Point 19 °F
Humidity 41%
Rainfall in
Snow Depth Not available.
UV 7 out of 12
Pollen 4.80 out of 12
Air Quality Not available.
Flu Activity Not available.
METAR KCDS 051953Z AUTO 24009KT 10SM CLR 04/M08 A3052 RMK AO2 SLP347 T00391078

More Conditions Fewer Conditions

10-Day Weather Forecast

Almanac

Astronomy

Mar. 05, 2015 Rise Set
Actual Time
Civil Twilight
Nautical Twilight
Astronomical Twilight
Moon
Length of Visible Light
Length of Day
Tomorrow will be .
, % of the Moon is Illuminated

Today's Extremes

State Highs State Lows

Community

WunderPhotos

Upload Photos

1,802,952 photos uploaded!

WunderBlogs® & News

Nearby

Air Quality

  Air Quality AQ Index Pollutant
Not available.

Snow Depth

Station Depth Elevation

Earthquake Activity

City Distance Mag. Time & Date
Minimum magnitude displayed is 2.5.

Coastal Water Temperatures

Place Temperature

Nearby Weather Stations